sensor_id;sensor_type;location;lat;lon;timestamp;P1;durP1;ratioP1;P2;durP2;ratioP2
21624;SDS011;10974;51.034;3.744;2022-08-21T00:00:29;4.10;;;2.10;;
21624;SDS011;10974;51.034;3.744;2022-08-21T00:02:58;3.07;;;1.57;;
21624;SDS011;10974;51.034;3.744;2022-08-21T00:05:27;4.87;;;1.67;;
21624;SDS011;10974;51.034;3.744;2022-08-21T00:07:54;2.53;;;1.43;;
21624;SDS011;10974;51.034;3.744;2022-08-21T00:10:21;8.27;;;2.00;;
21624;SDS011;10974;51.034;3.744;2022-08-21T00:12:47;2.57;;;1.40;;
21624;SDS011;10974;51.034;3.744;2022-08-21T00:15:14;2.13;;;1.50;;
21624;SDS011;10974;51.034;3.744;2022-08-21T00:17:42;3.03;;;1.77;;
21624;SDS011;10974;51.034;3.744;2022-08-21T00:20:09;5.10;;;1.87;;
21624;SDS011;10974;51.034;3.744;2022-08-21T00:22:36;3.07;;;1.63;;
21624;SDS011;10974;51.034;3.744;2022-08-21T00:25:05;3.80;;;1.50;;
21624;SDS011;10974;51.034;3.744;2022-08-21T00:27:32;3.90;;;2.03;;
21624;SDS011;10974;51.034;3.744;2022-08-21T00:29:58;3.53;;;1.70;;
21624;SDS011;10974;51.034;3.744;2022-08-21T00:32:24;4.23;;;1.93;;
21624;SDS011;10974;51.034;3.744;2022-08-21T00:34:51;3.90;;;1.57;;
21624;SDS011;10974;51.034;3.744;2022-08-21T00:37:17;2.03;;;1.33;;
21624;SDS011;10974;51.034;3.744;2022-08-21T00:39:44;4.33;;;1.83;;
21624;SDS011;10974;51.034;3.744;2022-08-21T00:42:10;3.57;;;1.50;;
21624;SDS011;10974;51.034;3.744;2022-08-21T00:44:39;2.80;;;1.60;;
21624;SDS011;10974;51.034;3.744;2022-08-21T00:47:06;3.37;;;1.60;;
21624;SDS011;10974;51.034;3.744;2022-08-21T00:49:33;9.63;;;2.00;;
21624;SDS011;10974;51.034;3.744;2022-08-21T00:51:59;1.73;;;1.63;;
21624;SDS011;10974;51.034;3.744;2022-08-21T00:54:26;3.87;;;1.83;;
21624;SDS011;10974;51.034;3.744;2022-08-21T00:56:55;3.60;;;2.00;;
21624;SDS011;10974;51.034;3.744;2022-08-21T00:59:25;4.60;;;2.37;;
21624;SDS011;10974;51.034;3.744;2022-08-21T01:01:52;4.97;;;2.33;;
21624;SDS011;10974;51.034;3.744;2022-08-21T01:04:19;5.70;;;2.33;;
21624;SDS011;10974;51.034;3.744;2022-08-21T01:06:46;4.77;;;2.33;;
21624;SDS011;10974;51.034;3.744;2022-08-21T01:09:12;5.17;;;2.30;;
21624;SDS011;10974;51.034;3.744;2022-08-21T01:11:39;5.47;;;3.03;;
21624;SDS011;10974;51.034;3.744;2022-08-21T01:14:07;5.37;;;2.60;;
21624;SDS011;10974;51.034;3.744;2022-08-21T01:16:37;5.73;;;2.67;;
21624;SDS011;10974;51.034;3.744;2022-08-21T01:19:05;4.03;;;2.40;;
21624;SDS011;10974;51.034;3.744;2022-08-21T01:21:32;4.23;;;2.00;;
21624;SDS011;10974;51.034;3.744;2022-08-21T01:23:58;5.70;;;2.63;;
21624;SDS011;10974;51.034;3.744;2022-08-21T01:26:26;4.10;;;2.30;;
21624;SDS011;10974;51.034;3.744;2022-08-21T01:29:01;3.93;;;2.57;;
21624;SDS011;10974;51.034;3.744;2022-08-21T01:31:37;4.70;;;2.50;;
21624;SDS011;10974;51.034;3.744;2022-08-21T01:34:03;5.20;;;2.97;;
21624;SDS011;10974;51.034;3.744;2022-08-21T01:36:30;5.03;;;2.33;;
21624;SDS011;10974;51.034;3.744;2022-08-21T01:38:56;5.83;;;2.90;;
21624;SDS011;10974;51.034;3.744;2022-08-21T01:41:22;5.03;;;2.40;;
21624;SDS011;10974;51.034;3.744;2022-08-21T01:43:48;5.07;;;2.80;;
21624;SDS011;10974;51.034;3.744;2022-08-21T01:46:14;5.90;;;2.50;;
21624;SDS011;10974;51.034;3.744;2022-08-21T01:48:41;5.97;;;2.70;;
21624;SDS011;10974;51.034;3.744;2022-08-21T01:51:07;5.37;;;2.60;;
21624;SDS011;10974;51.034;3.744;2022-08-21T01:53:33;4.90;;;2.70;;
21624;SDS011;10974;51.034;3.744;2022-08-21T01:56:02;4.70;;;2.67;;
21624;SDS011;10974;51.034;3.744;2022-08-21T01:58:30;4.43;;;2.93;;
21624;SDS011;10974;51.034;3.744;2022-08-21T02:00:56;4.27;;;2.57;;
21624;SDS011;10974;51.034;3.744;2022-08-21T02:03:21;5.63;;;2.47;;
21624;SDS011;10974;51.034;3.744;2022-08-21T02:05:47;4.53;;;2.83;;
21624;SDS011;10974;51.034;3.744;2022-08-21T02:08:13;4.00;;;2.20;;
21624;SDS011;10974;51.034;3.744;2022-08-21T02:10:38;3.93;;;2.27;;
21624;SDS011;10974;51.034;3.744;2022-08-21T02:13:05;4.97;;;2.57;;
21624;SDS011;10974;51.034;3.744;2022-08-21T02:15:32;5.40;;;2.73;;
21624;SDS011;10974;51.034;3.744;2022-08-21T02:17:59;6.60;;;2.83;;
21624;SDS011;10974;51.034;3.744;2022-08-21T02:20:27;7.23;;;3.10;;
21624;SDS011;10974;51.034;3.744;2022-08-21T02:22:59;3.93;;;2.50;;
21624;SDS011;10974;51.034;3.744;2022-08-21T02:25:26;5.53;;;2.70;;
21624;SDS011;10974;51.034;3.744;2022-08-21T02:27:54;5.70;;;2.70;;
21624;SDS011;10974;51.034;3.744;2022-08-21T02:30:27;6.03;;;2.70;;
21624;SDS011;10974;51.034;3.744;2022-08-21T02:32:56;2.80;;;2.30;;
21624;SDS011;10974;51.034;3.744;2022-08-21T02:35:23;5.30;;;2.80;;
21624;SDS011;10974;51.034;3.744;2022-08-21T02:37:53;6.13;;;2.67;;
21624;SDS011;10974;51.034;3.744;2022-08-21T02:40:22;6.30;;;2.50;;
21624;SDS011;10974;51.034;3.744;2022-08-21T02:42:51;5.80;;;2.80;;
21624;SDS011;10974;51.034;3.744;2022-08-21T02:45:17;5.77;;;3.10;;
21624;SDS011;10974;51.034;3.744;2022-08-21T02:48:03;4.77;;;2.30;;
21624;SDS011;10974;51.034;3.744;2022-08-21T02:50:35;3.97;;;2.40;;
21624;SDS011;10974;51.034;3.744;2022-08-21T02:53:08;5.00;;;2.40;;
21624;SDS011;10974;51.034;3.744;2022-08-21T02:55:36;6.63;;;2.50;;
21624;SDS011;10974;51.034;3.744;2022-08-21T02:58:04;5.27;;;2.40;;
21624;SDS011;10974;51.034;3.744;2022-08-21T03:00:32;3.83;;;1.93;;
21624;SDS011;10974;51.034;3.744;2022-08-21T03:02:58;5.63;;;2.87;;
21624;SDS011;10974;51.034;3.744;2022-08-21T03:05:25;4.90;;;2.40;;
21624;SDS011;10974;51.034;3.744;2022-08-21T03:07:52;6.80;;;2.80;;
21624;SDS011;10974;51.034;3.744;2022-08-21T03:10:20;5.60;;;2.80;;
21624;SDS011;10974;51.034;3.744;2022-08-21T03:12:46;3.77;;;2.30;;
21624;SDS011;10974;51.034;3.744;2022-08-21T03:15:15;10.73;;;3.37;;
21624;SDS011;10974;51.034;3.744;2022-08-21T03:17:43;4.30;;;2.60;;
21624;SDS011;10974;51.034;3.744;2022-08-21T03:20:11;4.83;;;2.70;;
21624;SDS011;10974;51.034;3.744;2022-08-21T03:22:39;3.47;;;2.23;;
21624;SDS011;10974;51.034;3.744;2022-08-21T03:25:05;3.57;;;2.17;;
21624;SDS011;10974;51.034;3.744;2022-08-21T03:27:31;6.40;;;2.50;;
21624;SDS011;10974;51.034;3.744;2022-08-21T03:29:59;5.50;;;3.00;;
21624;SDS011;10974;51.034;3.744;2022-08-21T03:32:25;4.77;;;2.23;;
21624;SDS011;10974;51.034;3.744;2022-08-21T03:34:52;4.90;;;2.30;;
21624;SDS011;10974;51.034;3.744;2022-08-21T03:37:17;5.73;;;2.40;;
21624;SDS011;10974;51.034;3.744;2022-08-21T03:39:43;5.43;;;2.47;;
21624;SDS011;10974;51.034;3.744;2022-08-21T03:42:10;4.17;;;2.30;;
21624;SDS011;10974;51.034;3.744;2022-08-21T03:44:36;7.57;;;2.50;;
21624;SDS011;10974;51.034;3.744;2022-08-21T03:47:02;5.80;;;2.70;;
21624;SDS011;10974;51.034;3.744;2022-08-21T03:49:28;5.23;;;2.27;;
21624;SDS011;10974;51.034;3.744;2022-08-21T03:51:54;4.70;;;2.67;;
21624;SDS011;10974;51.034;3.744;2022-08-21T03:54:20;5.87;;;2.67;;
21624;SDS011;10974;51.034;3.744;2022-08-21T03:56:46;6.50;;;2.47;;
21624;SDS011;10974;51.034;3.744;2022-08-21T03:59:12;5.47;;;2.70;;
21624;SDS011;10974;51.034;3.744;2022-08-21T04:01:38;5.70;;;3.03;;
21624;SDS011;10974;51.034;3.744;2022-08-21T04:04:04;6.13;;;3.10;;
21624;SDS011;10974;51.034;3.744;2022-08-21T04:06:31;4.90;;;2.37;;
21624;SDS011;10974;51.034;3.744;2022-08-21T04:08:57;6.53;;;2.20;;
21624;SDS011;10974;51.034;3.744;2022-08-21T04:11:23;5.13;;;2.97;;
21624;SDS011;10974;51.034;3.744;2022-08-21T04:13:49;4.33;;;2.33;;
21624;SDS011;10974;51.034;3.744;2022-08-21T04:16:14;4.80;;;2.40;;
21624;SDS011;10974;51.034;3.744;2022-08-21T04:18:40;5.33;;;2.67;;
21624;SDS011;10974;51.034;3.744;2022-08-21T04:21:07;4.37;;;2.37;;
21624;SDS011;10974;51.034;3.744;2022-08-21T04:23:35;4.57;;;2.40;;
21624;SDS011;10974;51.034;3.744;2022-08-21T04:26:01;4.33;;;2.43;;
21624;SDS011;10974;51.034;3.744;2022-08-21T04:28:27;5.67;;;2.57;;
21624;SDS011;10974;51.034;3.744;2022-08-21T04:30:53;5.83;;;3.20;;
21624;SDS011;10974;51.034;3.744;2022-08-21T04:33:19;5.87;;;2.83;;
21624;SDS011;10974;51.034;3.744;2022-08-21T04:35:45;6.93;;;2.77;;
21624;SDS011;10974;51.034;3.744;2022-08-21T04:38:11;6.07;;;2.70;;
21624;SDS011;10974;51.034;3.744;2022-08-21T04:40:37;4.43;;;2.37;;
21624;SDS011;10974;51.034;3.744;2022-08-21T04:43:04;5.87;;;2.63;;
21624;SDS011;10974;51.034;3.744;2022-08-21T04:45:35;7.27;;;3.00;;
21624;SDS011;10974;51.034;3.744;2022-08-21T04:48:03;7.37;;;2.93;;
21624;SDS011;10974;51.034;3.744;2022-08-21T04:53:27;4.27;;;2.50;;
21624;SDS011;10974;51.034;3.744;2022-08-21T04:56:00;6.90;;;2.77;;
21624;SDS011;10974;51.034;3.744;2022-08-21T04:58:33;6.47;;;3.03;;
21624;SDS011;10974;51.034;3.744;2022-08-21T05:01:00;3.53;;;2.40;;
21624;SDS011;10974;51.034;3.744;2022-08-21T05:03:26;5.97;;;3.10;;
21624;SDS011;10974;51.034;3.744;2022-08-21T05:05:56;6.00;;;2.43;;
21624;SDS011;10974;51.034;3.744;2022-08-21T05:08:22;6.67;;;3.50;;
21624;SDS011;10974;51.034;3.744;2022-08-21T05:10:50;5.53;;;2.53;;
21624;SDS011;10974;51.034;3.744;2022-08-21T05:13:16;5.23;;;2.80;;
21624;SDS011;10974;51.034;3.744;2022-08-21T05:15:42;5.90;;;3.17;;
21624;SDS011;10974;51.034;3.744;2022-08-21T05:18:08;6.83;;;3.73;;
21624;SDS011;10974;51.034;3.744;2022-08-21T05:20:34;5.37;;;2.60;;
21624;SDS011;10974;51.034;3.744;2022-08-21T05:23:01;5.80;;;2.70;;
21624;SDS011;10974;51.034;3.744;2022-08-21T05:25:36;7.30;;;3.10;;
21624;SDS011;10974;51.034;3.744;2022-08-21T05:28:02;6.73;;;2.77;;
21624;SDS011;10974;51.034;3.744;2022-08-21T05:30:29;7.60;;;2.60;;
21624;SDS011;10974;51.034;3.744;2022-08-21T05:32:56;6.97;;;2.50;;
21624;SDS011;10974;51.034;3.744;2022-08-21T05:35:23;5.73;;;2.20;;
21624;SDS011;10974;51.034;3.744;2022-08-21T05:37:49;7.30;;;1.97;;
21624;SDS011;10974;51.034;3.744;2022-08-21T05:40:14;3.40;;;1.63;;
21624;SDS011;10974;51.034;3.744;2022-08-21T05:42:40;1.90;;;1.47;;
21624;SDS011;10974;51.034;3.744;2022-08-21T05:45:06;1.63;;;1.47;;
21624;SDS011;10974;51.034;3.744;2022-08-21T05:47:32;1.90;;;1.57;;
21624;SDS011;10974;51.034;3.744;2022-08-21T05:49:57;3.47;;;1.60;;
21624;SDS011;10974;51.034;3.744;2022-08-21T05:52:23;3.10;;;1.50;;
21624;SDS011;10974;51.034;3.744;2022-08-21T05:54:49;1.93;;;1.70;;
21624;SDS011;10974;51.034;3.744;2022-08-21T05:57:15;2.87;;;1.63;;
21624;SDS011;10974;51.034;3.744;2022-08-21T05:59:41;1.50;;;1.33;;
21624;SDS011;10974;51.034;3.744;2022-08-21T06:02:07;2.30;;;1.40;;
21624;SDS011;10974;51.034;3.744;2022-08-21T06:04:39;1.97;;;1.20;;
21624;SDS011;10974;51.034;3.744;2022-08-21T06:07:05;1.63;;;1.23;;
21624;SDS011;10974;51.034;3.744;2022-08-21T06:09:32;1.33;;;1.23;;
21624;SDS011;10974;51.034;3.744;2022-08-21T06:11:58;3.77;;;1.57;;
21624;SDS011;10974;51.034;3.744;2022-08-21T06:14:27;5.17;;;1.50;;
21624;SDS011;10974;51.034;3.744;2022-08-21T06:16:53;2.00;;;1.50;;
21624;SDS011;10974;51.034;3.744;2022-08-21T06:19:18;2.20;;;1.30;;
21624;SDS011;10974;51.034;3.744;2022-08-21T06:21:44;3.43;;;1.40;;
21624;SDS011;10974;51.034;3.744;2022-08-21T06:24:09;3.07;;;1.43;;
21624;SDS011;10974;51.034;3.744;2022-08-21T06:26:36;2.93;;;1.60;;
21624;SDS011;10974;51.034;3.744;2022-08-21T06:29:02;4.10;;;1.60;;
21624;SDS011;10974;51.034;3.744;2022-08-21T06:31:27;3.53;;;1.43;;
21624;SDS011;10974;51.034;3.744;2022-08-21T06:33:53;2.93;;;1.57;;
21624;SDS011;10974;51.034;3.744;2022-08-21T06:36:19;15.17;;;2.10;;
21624;SDS011;10974;51.034;3.744;2022-08-21T06:38:49;1.63;;;1.30;;
21624;SDS011;10974;51.034;3.744;2022-08-21T06:41:14;4.40;;;1.77;;
21624;SDS011;10974;51.034;3.744;2022-08-21T06:43:40;30.50;;;2.40;;
21624;SDS011;10974;51.034;3.744;2022-08-21T06:46:06;2.73;;;1.60;;
21624;SDS011;10974;51.034;3.744;2022-08-21T06:48:32;3.20;;;1.40;;
21624;SDS011;10974;51.034;3.744;2022-08-21T06:50:59;2.27;;;1.40;;
21624;SDS011;10974;51.034;3.744;2022-08-21T06:53:25;3.70;;;1.70;;
21624;SDS011;10974;51.034;3.744;2022-08-21T06:55:51;1.73;;;1.00;;
21624;SDS011;10974;51.034;3.744;2022-08-21T06:58:17;36.17;;;2.00;;
21624;SDS011;10974;51.034;3.744;2022-08-21T07:00:45;1.60;;;1.10;;
21624;SDS011;10974;51.034;3.744;2022-08-21T07:06:06;2.80;;;1.23;;
21624;SDS011;10974;51.034;3.744;2022-08-21T07:08:34;1.33;;;1.17;;
21624;SDS011;10974;51.034;3.744;2022-08-21T07:11:02;2.80;;;1.40;;
21624;SDS011;10974;51.034;3.744;2022-08-21T07:13:29;3.07;;;1.30;;
21624;SDS011;10974;51.034;3.744;2022-08-21T07:15:54;2.17;;;1.40;;
21624;SDS011;10974;51.034;3.744;2022-08-21T07:18:20;4.27;;;1.60;;
21624;SDS011;10974;51.034;3.744;2022-08-21T07:20:46;1.73;;;1.40;;
21624;SDS011;10974;51.034;3.744;2022-08-21T07:23:22;1.20;;;1.10;;
21624;SDS011;10974;51.034;3.744;2022-08-21T07:25:51;2.43;;;1.43;;
21624;SDS011;10974;51.034;3.744;2022-08-21T07:28:16;1.63;;;1.10;;
21624;SDS011;10974;51.034;3.744;2022-08-21T07:30:42;2.97;;;1.50;;
21624;SDS011;10974;51.034;3.744;2022-08-21T07:33:08;2.00;;;1.20;;
21624;SDS011;10974;51.034;3.744;2022-08-21T07:35:34;4.10;;;1.20;;
21624;SDS011;10974;51.034;3.744;2022-08-21T07:37:59;2.30;;;1.27;;
21624;SDS011;10974;51.034;3.744;2022-08-21T07:40:25;3.03;;;1.10;;
21624;SDS011;10974;51.034;3.744;2022-08-21T07:42:51;1.80;;;1.10;;
21624;SDS011;10974;51.034;3.744;2022-08-21T07:45:18;6.23;;;1.03;;
21624;SDS011;10974;51.034;3.744;2022-08-21T07:47:45;6.00;;;1.63;;
21624;SDS011;10974;51.034;3.744;2022-08-21T07:50:12;6.30;;;1.77;;
21624;SDS011;10974;51.034;3.744;2022-08-21T07:52:39;7.30;;;1.50;;
21624;SDS011;10974;51.034;3.744;2022-08-21T07:55:07;5.47;;;2.13;;
21624;SDS011;10974;51.034;3.744;2022-08-21T07:57:35;7.90;;;1.53;;
21624;SDS011;10974;51.034;3.744;2022-08-21T08:00:03;43.37;;;2.90;;
21624;SDS011;10974;51.034;3.744;2022-08-21T08:02:31;10.70;;;2.63;;
21624;SDS011;10974;51.034;3.744;2022-08-21T08:05:00;10.60;;;2.67;;
21624;SDS011;10974;51.034;3.744;2022-08-21T08:07:27;9.53;;;2.37;;
21624;SDS011;10974;51.034;3.744;2022-08-21T08:09:53;13.80;;;2.97;;
21624;SDS011;10974;51.034;3.744;2022-08-21T08:12:18;10.00;;;2.40;;
21624;SDS011;10974;51.034;3.744;2022-08-21T08:14:45;7.83;;;2.10;;
21624;SDS011;10974;51.034;3.744;2022-08-21T08:17:10;11.73;;;2.60;;
21624;SDS011;10974;51.034;3.744;2022-08-21T08:19:36;16.33;;;2.97;;
21624;SDS011;10974;51.034;3.744;2022-08-21T08:22:11;13.10;;;1.87;;
21624;SDS011;10974;51.034;3.744;2022-08-21T08:24:39;2.83;;;1.10;;
21624;SDS011;10974;51.034;3.744;2022-08-21T08:27:04;5.40;;;1.77;;
21624;SDS011;10974;51.034;3.744;2022-08-21T08:29:30;3.67;;;1.73;;
21624;SDS011;10974;51.034;3.744;2022-08-21T08:31:56;33.17;;;2.97;;
21624;SDS011;10974;51.034;3.744;2022-08-21T08:34:22;2.43;;;1.30;;
21624;SDS011;10974;51.034;3.744;2022-08-21T08:36:48;3.67;;;1.60;;
21624;SDS011;10974;51.034;3.744;2022-08-21T08:39:14;10.60;;;1.80;;
21624;SDS011;10974;51.034;3.744;2022-08-21T08:41:39;6.67;;;1.87;;
21624;SDS011;10974;51.034;3.744;2022-08-21T08:44:08;8.00;;;1.87;;
21624;SDS011;10974;51.034;3.744;2022-08-21T08:46:41;3.60;;;1.57;;
21624;SDS011;10974;51.034;3.744;2022-08-21T08:54:28;7.73;;;1.57;;
21624;SDS011;10974;51.034;3.744;2022-08-21T08:56:58;3.97;;;1.43;;
21624;SDS011;10974;51.034;3.744;2022-08-21T09:00:03;6.33;;;1.90;;
21624;SDS011;10974;51.034;3.744;2022-08-21T09:02:21;1.97;;;1.20;;
21624;SDS011;10974;51.034;3.744;2022-08-21T09:04:52;3.23;;;1.20;;
21624;SDS011;10974;51.034;3.744;2022-08-21T09:15:50;2.43;;;1.30;;
21624;SDS011;10974;51.034;3.744;2022-08-21T09:17:59;1.27;;;0.90;;
21624;SDS011;10974;51.034;3.744;2022-08-21T09:23:46;2.40;;;1.20;;
21624;SDS011;10974;51.034;3.744;2022-08-21T09:26:24;2.40;;;1.20;;
21624;SDS011;10974;51.034;3.744;2022-08-21T09:28:53;2.20;;;1.13;;
21624;SDS011;10974;51.034;3.744;2022-08-21T09:31:35;3.20;;;1.37;;
21624;SDS011;10974;51.034;3.744;2022-08-21T09:34:08;2.37;;;1.40;;
21624;SDS011;10974;51.034;3.744;2022-08-21T09:36:47;3.27;;;1.17;;
21624;SDS011;10974;51.034;3.744;2022-08-21T09:39:23;4.53;;;1.30;;
21624;SDS011;10974;51.034;3.744;2022-08-21T09:41:58;32.77;;;2.03;;
21624;SDS011;10974;51.034;3.744;2022-08-21T09:44:34;4.63;;;1.10;;
21624;SDS011;10974;51.034;3.744;2022-08-21T09:47:08;4.77;;;1.60;;
21624;SDS011;10974;51.034;3.744;2022-08-21T09:49:36;1.60;;;1.30;;
21624;SDS011;10974;51.034;3.744;2022-08-21T09:52:06;3.57;;;1.30;;
21624;SDS011;10974;51.034;3.744;2022-08-21T09:54:51;3.33;;;1.30;;
21624;SDS011;10974;51.034;3.744;2022-08-21T09:57:21;1.73;;;1.13;;
21624;SDS011;10974;51.034;3.744;2022-08-21T10:05:36;5.47;;;1.80;;
21624;SDS011;10974;51.034;3.744;2022-08-21T10:08:02;3.40;;;1.57;;
21624;SDS011;10974;51.034;3.744;2022-08-21T10:10:30;3.13;;;1.67;;
21624;SDS011;10974;51.034;3.744;2022-08-21T10:18:22;4.57;;;1.83;;
21624;SDS011;10974;51.034;3.744;2022-08-21T10:29:17;9.93;;;1.80;;
21624;SDS011;10974;51.034;3.744;2022-08-21T10:37:18;3.70;;;1.10;;
21624;SDS011;10974;51.034;3.744;2022-08-21T10:40:26;6.43;;;3.20;;
21624;SDS011;10974;51.034;3.744;2022-08-21T10:43:03;7.57;;;1.57;;
21624;SDS011;10974;51.034;3.744;2022-08-21T10:48:28;10.03;;;1.80;;
21624;SDS011;10974;51.034;3.744;2022-08-21T10:51:10;8.63;;;2.22;;
21624;SDS011;10974;51.034;3.744;2022-08-21T10:53:57;13.20;;;2.00;;
21624;SDS011;10974;51.034;3.744;2022-08-21T10:56:31;8.90;;;2.03;;
21624;SDS011;10974;51.034;3.744;2022-08-21T10:59:02;6.40;;;2.03;;
21624;SDS011;10974;51.034;3.744;2022-08-21T11:04:19;5.77;;;1.77;;
21624;SDS011;10974;51.034;3.744;2022-08-21T11:06:52;7.20;;;2.10;;
21624;SDS011;10974;51.034;3.744;2022-08-21T11:09:24;4.23;;;1.50;;
21624;SDS011;10974;51.034;3.744;2022-08-21T11:11:56;9.90;;;1.90;;
21624;SDS011;10974;51.034;3.744;2022-08-21T11:14:39;4.77;;;1.87;;
21624;SDS011;10974;51.034;3.744;2022-08-21T11:17:16;13.80;;;1.63;;
21624;SDS011;10974;51.034;3.744;2022-08-21T11:19:49;17.43;;;1.97;;
21624;SDS011;10974;51.034;3.744;2022-08-21T11:25:14;6.43;;;2.10;;
21624;SDS011;10974;51.034;3.744;2022-08-21T11:27:50;9.90;;;2.00;;
21624;SDS011;10974;51.034;3.744;2022-08-21T11:30:24;10.00;;;2.33;;
21624;SDS011;10974;51.034;3.744;2022-08-21T11:35:58;11.20;;;2.07;;
21624;SDS011;10974;51.034;3.744;2022-08-21T11:41:28;6.57;;;1.57;;
21624;SDS011;10974;51.034;3.744;2022-08-21T11:44:13;6.60;;;1.97;;
21624;SDS011;10974;51.034;3.744;2022-08-21T11:47:00;3.93;;;1.60;;
21624;SDS011;10974;51.034;3.744;2022-08-21T11:55:29;6.07;;;1.43;;
21624;SDS011;10974;51.034;3.744;2022-08-21T11:58:05;6.57;;;1.70;;
21624;SDS011;10974;51.034;3.744;2022-08-21T12:00:36;3.50;;;1.60;;
21624;SDS011;10974;51.034;3.744;2022-08-21T12:03:11;7.00;;;1.70;;
21624;SDS011;10974;51.034;3.744;2022-08-21T12:05:40;3.27;;;1.23;;
21624;SDS011;10974;51.034;3.744;2022-08-21T12:08:26;5.23;;;1.90;;
21624;SDS011;10974;51.034;3.744;2022-08-21T12:11:03;14.13;;;4.47;;
21624;SDS011;10974;51.034;3.744;2022-08-21T12:16:38;1.53;;;1.07;;
21624;SDS011;10974;51.034;3.744;2022-08-21T12:19:13;5.97;;;1.40;;
21624;SDS011;10974;51.034;3.744;2022-08-21T12:22:35;3.90;;;1.30;;
21624;SDS011;10974;51.034;3.744;2022-08-21T12:24:44;2.87;;;1.20;;
21624;SDS011;10974;51.034;3.744;2022-08-21T12:29:47;5.83;;;1.40;;
21624;SDS011;10974;51.034;3.744;2022-08-21T12:34:47;3.03;;;1.20;;
21624;SDS011;10974;51.034;3.744;2022-08-21T12:42:43;7.63;;;1.80;;
21624;SDS011;10974;51.034;3.744;2022-08-21T12:45:28;5.80;;;1.83;;
21624;SDS011;10974;51.034;3.744;2022-08-21T12:48:32;8.30;;;1.40;;
21624;SDS011;10974;51.034;3.744;2022-08-21T12:51:08;4.70;;;1.50;;
21624;SDS011;10974;51.034;3.744;2022-08-21T12:53:56;5.43;;;1.80;;
21624;SDS011;10974;51.034;3.744;2022-08-21T12:56:24;72.83;;;4.43;;
21624;SDS011;10974;51.034;3.744;2022-08-21T12:58:56;4.83;;;1.53;;
21624;SDS011;10974;51.034;3.744;2022-08-21T13:04:02;7.93;;;1.60;;
21624;SDS011;10974;51.034;3.744;2022-08-21T13:06:36;6.63;;;1.87;;
21624;SDS011;10974;51.034;3.744;2022-08-21T13:09:08;8.13;;;1.43;;
21624;SDS011;10974;51.034;3.744;2022-08-21T13:11:42;6.00;;;1.67;;
21624;SDS011;10974;51.034;3.744;2022-08-21T13:14:14;5.77;;;1.40;;
21624;SDS011;10974;51.034;3.744;2022-08-21T13:16:47;1.90;;;1.10;;
21624;SDS011;10974;51.034;3.744;2022-08-21T13:19:17;3.40;;;1.73;;
21624;SDS011;10974;51.034;3.744;2022-08-21T13:21:45;3.47;;;1.40;;
21624;SDS011;10974;51.034;3.744;2022-08-21T13:24:15;4.77;;;1.40;;
21624;SDS011;10974;51.034;3.744;2022-08-21T13:26:43;4.27;;;1.37;;
21624;SDS011;10974;51.034;3.744;2022-08-21T13:29:11;1.80;;;1.07;;
21624;SDS011;10974;51.034;3.744;2022-08-21T13:31:40;4.30;;;1.33;;
21624;SDS011;10974;51.034;3.744;2022-08-21T13:34:11;2.13;;;1.13;;
21624;SDS011;10974;51.034;3.744;2022-08-21T13:36:39;1.80;;;1.20;;
21624;SDS011;10974;51.034;3.744;2022-08-21T13:39:07;4.00;;;1.20;;
21624;SDS011;10974;51.034;3.744;2022-08-21T13:41:36;2.07;;;1.10;;
21624;SDS011;10974;51.034;3.744;2022-08-21T13:46:51;2.80;;;0.90;;
21624;SDS011;10974;51.034;3.744;2022-08-21T13:49:18;2.63;;;1.37;;
21624;SDS011;10974;51.034;3.744;2022-08-21T13:51:47;3.53;;;1.20;;
21624;SDS011;10974;51.034;3.744;2022-08-21T13:54:33;3.03;;;0.90;;
21624;SDS011;10974;51.034;3.744;2022-08-21T13:57:02;3.33;;;0.90;;
21624;SDS011;10974;51.034;3.744;2022-08-21T13:59:29;2.23;;;1.00;;
21624;SDS011;10974;51.034;3.744;2022-08-21T14:01:59;1.90;;;0.70;;
21624;SDS011;10974;51.034;3.744;2022-08-21T14:04:38;4.63;;;1.03;;
21624;SDS011;10974;51.034;3.744;2022-08-21T14:07:21;4.50;;;0.80;;
21624;SDS011;10974;51.034;3.744;2022-08-21T14:09:52;0.70;;;0.70;;
21624;SDS011;10974;51.034;3.744;2022-08-21T14:12:24;1.57;;;0.90;;
21624;SDS011;10974;51.034;3.744;2022-08-21T14:14:54;1.23;;;1.00;;
21624;SDS011;10974;51.034;3.744;2022-08-21T14:17:29;1.17;;;0.83;;
21624;SDS011;10974;51.034;3.744;2022-08-21T14:19:59;1.17;;;0.83;;
21624;SDS011;10974;51.034;3.744;2022-08-21T14:22:58;2.70;;;1.67;;
21624;SDS011;10974;51.034;3.744;2022-08-21T14:32:44;1.73;;;0.70;;
21624;SDS011;10974;51.034;3.744;2022-08-21T14:35:10;1.53;;;1.00;;
21624;SDS011;10974;51.034;3.744;2022-08-21T14:37:37;2.23;;;0.90;;
21624;SDS011;10974;51.034;3.744;2022-08-21T14:40:06;3.40;;;0.90;;
21624;SDS011;10974;51.034;3.744;2022-08-21T14:42:32;2.40;;;1.00;;
21624;SDS011;10974;51.034;3.744;2022-08-21T14:45:00;1.50;;;1.00;;
21624;SDS011;10974;51.034;3.744;2022-08-21T14:47:30;4.10;;;1.27;;
21624;SDS011;10974;51.034;3.744;2022-08-21T14:49:56;3.33;;;1.10;;
21624;SDS011;10974;51.034;3.744;2022-08-21T14:52:21;1.67;;;1.10;;
21624;SDS011;10974;51.034;3.744;2022-08-21T14:54:48;1.90;;;1.20;;
21624;SDS011;10974;51.034;3.744;2022-08-21T14:57:14;1.23;;;0.80;;
21624;SDS011;10974;51.034;3.744;2022-08-21T14:59:40;2.23;;;0.83;;
21624;SDS011;10974;51.034;3.744;2022-08-21T15:02:06;2.40;;;1.10;;
21624;SDS011;10974;51.034;3.744;2022-08-21T15:04:33;2.83;;;1.27;;
21624;SDS011;10974;51.034;3.744;2022-08-21T15:07:00;1.37;;;0.90;;
21624;SDS011;10974;51.034;3.744;2022-08-21T15:09:26;0.80;;;0.80;;
21624;SDS011;10974;51.034;3.744;2022-08-21T15:11:55;1.17;;;0.80;;
21624;SDS011;10974;51.034;3.744;2022-08-21T15:14:28;1.20;;;0.80;;
21624;SDS011;10974;51.034;3.744;2022-08-21T15:16:57;0.80;;;0.80;;
21624;SDS011;10974;51.034;3.744;2022-08-21T15:19:23;2.63;;;0.97;;
21624;SDS011;10974;51.034;3.744;2022-08-21T15:21:48;3.07;;;0.93;;
21624;SDS011;10974;51.034;3.744;2022-08-21T15:24:14;2.07;;;0.90;;
21624;SDS011;10974;51.034;3.744;2022-08-21T15:26:40;6.90;;;1.00;;
21624;SDS011;10974;51.034;3.744;2022-08-21T15:29:07;1.00;;;0.90;;
21624;SDS011;10974;51.034;3.744;2022-08-21T15:31:33;28.63;;;2.80;;
21624;SDS011;10974;51.034;3.744;2022-08-21T15:34:00;12.03;;;1.60;;
21624;SDS011;10974;51.034;3.744;2022-08-21T15:36:25;12.50;;;1.73;;
21624;SDS011;10974;51.034;3.744;2022-08-21T15:38:52;6.90;;;1.30;;
21624;SDS011;10974;51.034;3.744;2022-08-21T15:41:18;14.90;;;1.93;;
21624;SDS011;10974;51.034;3.744;2022-08-21T15:43:47;13.23;;;2.43;;
21624;SDS011;10974;51.034;3.744;2022-08-21T15:46:15;4.03;;;1.50;;
21624;SDS011;10974;51.034;3.744;2022-08-21T15:48:42;5.27;;;1.80;;
21624;SDS011;10974;51.034;3.744;2022-08-21T15:51:09;7.53;;;1.90;;
21624;SDS011;10974;51.034;3.744;2022-08-21T15:53:35;3.50;;;1.40;;
21624;SDS011;10974;51.034;3.744;2022-08-21T15:56:03;7.53;;;1.80;;
21624;SDS011;10974;51.034;3.744;2022-08-21T15:58:30;8.67;;;2.87;;
21624;SDS011;10974;51.034;3.744;2022-08-21T16:00:58;9.07;;;2.97;;
21624;SDS011;10974;51.034;3.744;2022-08-21T16:03:25;8.13;;;2.87;;
21624;SDS011;10974;51.034;3.744;2022-08-21T16:05:51;8.47;;;2.83;;
21624;SDS011;10974;51.034;3.744;2022-08-21T16:08:18;4.70;;;2.50;;
21624;SDS011;10974;51.034;3.744;2022-08-21T16:10:45;9.90;;;2.90;;
21624;SDS011;10974;51.034;3.744;2022-08-21T16:13:16;10.83;;;3.63;;
21624;SDS011;10974;51.034;3.744;2022-08-21T16:15:47;7.60;;;2.90;;
21624;SDS011;10974;51.034;3.744;2022-08-21T16:18:13;7.60;;;2.73;;
21624;SDS011;10974;51.034;3.744;2022-08-21T16:20:39;7.80;;;2.93;;
21624;SDS011;10974;51.034;3.744;2022-08-21T16:23:05;9.17;;;2.70;;
21624;SDS011;10974;51.034;3.744;2022-08-21T16:25:33;6.80;;;2.63;;
21624;SDS011;10974;51.034;3.744;2022-08-21T16:28:00;8.83;;;3.43;;
21624;SDS011;10974;51.034;3.744;2022-08-21T16:30:26;9.10;;;2.93;;